Time;durP1;ratioP1;P1;durP2;ratioP2;P2;SDS_P1;SDS_P2;PMS_P1;PMS_P2;Temp;Humidity;BMP_temperature;BMP_pressure;BME280_temperature;BME280_humidity;BME280_pressure;Samples;Min_cycle;Max_cycle;Signal;HPM_P1;HPM_P2
2022/12/12 00:01:40;;;;;;;34.42;16.02;;;;;;;0.89;94.50;99565.72;5027069;28;20040;-68
2022/12/12 00:04:06;;;;;;;37.67;15.57;;;;;;;1.00;94.49;99587.50;5028957;28;20030;-69
2022/12/12 00:06:32;;;;;;;30.85;14.43;;;;;;;0.90;94.11;99572.69;5030358;28;20031;-69
2022/12/12 00:08:57;;;;;;;33.50;14.82;;;;;;;1.03;93.81;99585.75;5048206;28;20419;-69
2022/12/12 00:11:23;;;;;;;31.90;14.13;;;;;;;1.04;93.58;99586.59;5049989;28;20032;-69
2022/12/12 00:13:49;;;;;;;30.52;14.57;;;;;;;0.99;93.91;99584.00;5036090;28;20730;-70
2022/12/12 00:16:15;;;;;;;35.70;15.45;;;;;;;0.78;92.70;99567.44;5029711;28;20025;-69
2022/12/12 00:18:40;;;;;;;26.90;12.98;;;;;;;0.80;92.67;99570.94;5031129;28;20041;-70
2022/12/12 00:21:12;;;;;;;33.75;13.73;;;;;;;0.86;92.09;99578.78;5030139;28;20017;-70
2022/12/12 00:23:38;;;;;;;31.13;14.20;;;;;;;0.89;92.03;99581.41;5029316;28;20473;-70
2022/12/12 00:26:07;;;;;;;27.65;13.00;;;;;;;0.88;92.84;99587.50;5031912;28;20034;-69
2022/12/12 00:28:33;;;;;;;34.10;13.43;;;;;;;0.89;92.12;99576.19;5010955;28;20381;-69
2022/12/12 00:30:58;;;;;;;30.10;13.40;;;;;;;0.93;92.99;99588.38;5021017;28;20043;-70
2022/12/12 00:33:24;;;;;;;36.15;13.82;;;;;;;0.96;93.49;99580.50;5048893;28;20028;-70
2022/12/12 00:35:54;;;;;;;34.30;15.52;;;;;;;0.94;93.92;99588.38;5050429;28;20132;-70
2022/12/12 00:38:21;;;;;;;34.00;13.85;;;;;;;0.89;93.45;99569.19;5029593;28;20107;-70
2022/12/12 00:40:48;;;;;;;32.47;14.25;;;;;;;1.00;93.61;99592.72;5048070;28;20031;-70
2022/12/12 00:43:14;;;;;;;37.67;13.65;;;;;;;1.03;93.64;99592.72;5050365;28;20542;-70
2022/12/12 00:45:39;;;;;;;30.67;14.95;;;;;;;0.98;94.25;99581.38;5046371;28;20042;-70
2022/12/12 00:48:05;;;;;;;34.10;14.85;;;;;;;0.94;93.85;99587.53;5049029;28;20033;-69
2022/12/12 00:50:33;;;;;;;27.13;14.93;;;;;;;1.02;94.87;99598.84;5050237;28;20077;-70
2022/12/12 00:52:58;;;;;;;33.90;13.80;;;;;;;0.97;93.71;99597.97;5050266;28;20032;-70
2022/12/12 00:55:24;;;;;;;35.17;12.40;;;;;;;0.97;93.79;99600.59;5032078;28;20374;-70
2022/12/12 00:57:49;;;;;;;29.33;13.98;;;;;;;0.88;93.94;99577.91;5033529;28;20033;-70
2022/12/12 01:00:16;;;;;;;24.15;14.10;;;;;;;0.95;93.85;99599.72;5035180;28;20033;-70
2022/12/12 01:02:41;;;;;;;28.67;14.27;;;;;;;0.86;93.38;99578.78;5034005;28;20029;-70
2022/12/12 01:05:07;;;;;;;31.30;13.35;;;;;;;1.00;93.88;99605.81;5033513;28;20083;-71
2022/12/12 01:07:33;;;;;;;30.42;13.23;;;;;;;1.03;93.44;99603.19;5036423;28;20044;-70
2022/12/12 01:09:58;;;;;;;31.45;13.50;;;;;;;0.96;93.48;99586.63;5032281;28;20044;-70
2022/12/12 01:12:24;;;;;;;29.83;13.57;;;;;;;1.05;94.66;99604.97;5035841;28;20040;-70
2022/12/12 01:14:49;;;;;;;33.17;15.15;;;;;;;1.09;93.91;99598.81;5033782;28;20500;-70
2022/12/12 01:17:15;;;;;;;31.77;13.40;;;;;;;0.89;93.51;99584.03;5033071;28;20368;-70
2022/12/12 01:19:40;;;;;;;29.27;13.50;;;;;;;0.77;93.06;99584.03;5036145;28;20111;-70
2022/12/12 01:22:05;;;;;;;31.08;13.10;;;;;;;0.72;93.01;99606.72;5033532;28;20033;-70
2022/12/12 01:24:31;;;;;;;28.40;12.15;;;;;;;0.54;92.33;99604.97;5033654;28;20080;-70
2022/12/12 01:26:56;;;;;;;32.20;14.68;;;;;;;0.43;93.05;99590.16;5034253;28;20032;-70
2022/12/12 01:29:22;;;;;;;28.90;11.88;;;;;;;0.55;93.09;99613.69;5052796;28;20031;-70
2022/12/12 01:31:47;;;;;;;35.50;14.35;;;;;;;0.61;93.73;99618.94;5053305;28;20054;-71
2022/12/12 01:34:13;;;;;;;29.50;15.75;;;;;;;0.55;93.97;99605.81;5037993;28;20079;-70
2022/12/12 01:36:38;;;;;;;37.28;17.67;;;;;;;0.73;94.27;99625.03;5033122;28;20100;-70
2022/12/12 01:39:04;;;;;;;34.88;14.95;;;;;;;0.76;94.16;99629.38;5033018;28;20041;-70
2022/12/12 01:41:30;;;;;;;28.55;13.70;;;;;;;0.69;92.92;99628.50;5032766;28;20049;-69
2022/12/12 01:44:00;;;;;;;30.17;12.07;;;;;;;0.69;93.37;99628.50;5050797;28;20064;-70
2022/12/12 01:46:37;;;;;;;28.83;14.15;;;;;;;0.76;92.30;99630.25;5053004;28;20469;-69
2022/12/12 01:49:28;;;;;;;25.75;11.45;;;;;;;0.73;92.72;99635.50;5047982;28;20028;-70
2022/12/12 01:51:59;;;;;;;33.35;13.25;;;;;;;0.67;92.83;99634.63;5052971;28;20110;-70
2022/12/12 01:54:39;;;;;;;29.95;13.50;;;;;;;0.77;92.72;99641.63;5052490;28;20024;-70
2022/12/12 01:57:09;;;;;;;29.83;14.27;;;;;;;0.84;93.04;99643.38;5032883;28;20037;-70
2022/12/12 01:59:36;;;;;;;30.23;14.20;;;;;;;0.90;92.67;99638.13;5052939;28;20044;-69
2022/12/12 02:02:02;;;;;;;31.70;13.90;;;;;;;0.91;92.62;99642.47;5038405;28;20026;-69
2022/12/12 02:04:27;;;;;;;25.95;13.10;;;;;;;0.89;92.61;99636.38;5033195;28;20425;-70
2022/12/12 02:06:54;;;;;;;28.20;12.10;;;;;;;0.86;92.05;99641.59;5030765;28;20027;-70
2022/12/12 02:09:21;;;;;;;30.05;13.55;;;;;;;0.88;91.15;99634.63;5033461;28;20059;-69
2022/12/12 02:11:52;;;;;;;33.08;12.43;;;;;;;0.93;91.77;99643.34;5034724;28;20049;-70
2022/12/12 02:14:25;;;;;;;29.48;12.52;;;;;;;0.91;92.38;99640.72;5032283;28;20037;-70
2022/12/12 02:16:56;;;;;;;32.03;15.27;;;;;;;0.95;92.98;99636.38;5030185;28;20028;-69
2022/12/12 02:19:55;;;;;;;26.80;12.50;;;;;;;0.97;91.97;99642.50;5052449;28;20028;-70
2022/12/12 02:22:51;;;;;;;29.33;13.50;;;;;;;0.96;90.83;99638.09;5050309;28;20036;-69
2022/12/12 02:25:41;;;;;;;27.33;11.68;;;;;;;0.91;89.93;99635.50;5012435;28;20088;-70
2022/12/12 02:28:27;;;;;;;25.80;11.10;;;;;;;0.94;90.56;99634.66;5032365;28;20481;-69
2022/12/12 02:31:18;;;;;;;27.48;12.85;;;;;;;0.89;91.45;99626.75;5050556;28;20040;-70
2022/12/12 02:34:11;;;;;;;27.55;13.13;;;;;;;0.92;91.53;99641.63;5041566;28;20033;-69
2022/12/12 02:37:07;;;;;;;29.80;12.80;;;;;;;0.95;90.70;99646.84;5032088;28;20409;-70
2022/12/12 02:39:49;;;;;;;27.10;13.80;;;;;;;0.90;90.45;99644.25;5032117;28;20045;-70
2022/12/12 02:42:28;;;;;;;33.05;14.27;;;;;;;0.91;91.65;99639.84;5034097;28;20104;-70
2022/12/12 02:45:07;;;;;;;27.65;15.00;;;;;;;0.91;90.84;99645.09;5031896;28;20041;-70
2022/12/12 02:47:40;;;;;;;28.95;14.50;;;;;;;0.91;89.99;99634.63;5021900;28;20477;-71
2022/12/12 02:50:19;;;;;;;32.95;16.23;;;;;;;0.96;91.20;99648.59;5028566;28;20030;-70
2022/12/12 02:52:47;;;;;;;31.52;14.95;;;;;;;0.96;90.74;99651.19;5031773;28;20037;-70
2022/12/12 02:55:14;;;;;;;30.40;14.93;;;;;;;0.96;90.72;99638.09;5030456;28;20041;-70
2022/12/12 02:57:40;;;;;;;33.63;15.55;;;;;;;0.97;90.23;99645.09;5031470;28;20057;-70
2022/12/12 03:00:16;;;;;;;26.25;13.95;;;;;;;0.85;90.22;99635.50;5038742;28;20025;-70
2022/12/12 03:02:47;;;;;;;34.42;13.93;;;;;;;0.94;89.78;99650.34;5031703;28;20033;-69
2022/12/12 03:08:59;;;;;;;29.02;11.82;;;;;;;0.89;90.24;99644.25;5051696;28;20047;-71
2022/12/12 03:11:40;;;;;;;32.25;12.80;;;;;;;0.89;89.33;99646.84;4974552;28;20047;-71
2022/12/12 03:14:16;;;;;;;26.67;11.73;;;;;;;0.73;89.62;99619.81;4954134;28;20031;-71
2022/12/12 03:17:00;;;;;;;25.90;12.10;;;;;;;0.83;89.49;99644.22;5011483;28;20503;-70
2022/12/12 03:19:38;;;;;;;27.70;11.85;;;;;;;0.76;89.58;99632.00;5031239;28;20496;-70
2022/12/12 03:22:16;;;;;;;25.58;12.27;;;;;;;0.72;89.33;99627.66;5033239;28;20029;-70
2022/12/12 03:24:54;;;;;;;26.25;11.07;;;;;;;0.82;89.53;99642.50;5031456;28;20025;-70
2022/12/12 03:27:26;;;;;;;23.65;12.27;;;;;;;0.78;89.93;99625.03;5031336;28;20036;-70
2022/12/12 03:30:00;;;;;;;25.35;12.45;;;;;;;0.85;90.24;99639.88;5046745;28;20048;-71
2022/12/12 03:32:35;;;;;;;31.80;12.95;;;;;;;0.91;90.08;99639.84;5049174;28;20124;-72
2022/12/12 03:35:16;;;;;;;28.98;13.65;;;;;;;0.82;90.40;99629.41;5047832;28;20041;-72
2022/12/12 03:37:48;;;;;;;26.58;13.48;;;;;;;0.86;90.10;99631.13;5044810;28;20025;-70
2022/12/12 03:40:23;;;;;;;24.58;11.68;;;;;;;0.91;90.47;99637.22;5044488;28;20028;-70
2022/12/12 03:42:58;;;;;;;22.77;11.27;;;;;;;0.90;89.68;99641.63;5049426;28;20032;-70
2022/12/12 03:45:33;;;;;;;28.95;13.27;;;;;;;0.85;89.11;99643.38;5051011;28;20025;-70
2022/12/12 03:48:22;;;;;;;25.77;11.25;;;;;;;0.83;89.89;99631.13;5047113;28;20655;-70
2022/12/12 03:50:53;;;;;;;28.55;11.48;;;;;;;0.89;89.96;99641.63;5050707;28;20028;-70
2022/12/12 03:53:32;;;;;;;26.50;12.55;;;;;;;0.83;89.44;99633.75;5050785;28;20032;-71
2022/12/12 03:56:03;;;;;;;24.92;10.60;;;;;;;0.84;90.16;99641.59;5046440;28;20018;-70
2022/12/12 03:58:37;;;;;;;24.80;12.23;;;;;;;0.72;89.12;99623.31;5041405;28;20047;-69
2022/12/12 04:01:08;;;;;;;29.40;13.70;;;;;;;0.81;89.46;99645.97;5050716;28;20049;-70
2022/12/12 04:03:51;;;;;;;31.42;14.80;;;;;;;0.81;88.31;99644.22;5041681;28;20018;-70
2022/12/12 04:06:27;;;;;;;44.45;21.48;;;;;;;0.78;89.12;99643.34;5031053;28;20057;-69
2022/12/12 04:15:46;;;;;;;24.77;11.80;;;;;;;0.57;89.59;99649.44;5050962;28;20266;-71
2022/12/12 04:18:11;;;;;;;27.33;12.02;;;;;;;0.60;89.69;99654.69;5041224;28;20730;-71
2022/12/12 04:23:54;;;;;;;27.38;11.30;;;;;;;0.66;90.35;99648.59;5009856;28;20775;-71
2022/12/12 04:26:40;;;;;;;25.58;10.73;;;;;;;0.74;90.00;99654.69;5030564;28;20054;-71
2022/12/12 04:29:32;;;;;;;28.45;12.40;;;;;;;0.82;88.91;99655.56;5046854;28;20047;-71
2022/12/12 04:31:57;;;;;;;24.98;11.57;;;;;;;0.67;88.66;99648.59;5024029;28;20045;-72
2022/12/12 04:34:44;;;;;;;26.20;11.98;;;;;;;0.58;88.12;99652.91;5037800;28;20029;-71
2022/12/12 04:37:15;;;;;;;26.00;11.52;;;;;;;0.52;88.33;99645.06;5034226;28;20073;-71
2022/12/12 04:39:42;;;;;;;26.60;10.88;;;;;;;0.58;88.99;99666.00;5036032;28;20033;-71
2022/12/12 04:42:13;;;;;;;31.50;13.18;;;;;;;0.55;89.77;99660.78;5032845;28;20032;-71
2022/12/12 04:44:41;;;;;;;30.55;12.40;;;;;;;0.63;90.17;99666.88;5033406;28;20029;-71
2022/12/12 04:47:08;;;;;;;23.77;11.70;;;;;;;0.57;90.59;99645.94;5033016;28;20037;-70
2022/12/12 04:49:35;;;;;;;27.60;13.10;;;;;;;0.70;90.81;99673.88;5034221;28;20030;-71
2022/12/12 04:52:10;;;;;;;25.55;12.77;;;;;;;0.71;90.27;99673.03;5033087;28;20080;-71
2022/12/12 04:54:45;;;;;;;28.05;13.75;;;;;;;0.66;90.28;99674.75;5031580;28;20026;-70
2022/12/12 04:57:18;;;;;;;31.27;13.73;;;;;;;0.46;89.84;99660.78;5028703;28;20026;-71
2022/12/12 04:59:44;;;;;;;32.15;14.80;;;;;;;0.55;89.81;99671.22;5034004;28;20112;-71
2022/12/12 05:02:42;;;;;;;29.70;13.65;;;;;;;0.45;89.08;99669.47;5035775;28;20025;-71
2022/12/12 05:05:17;;;;;;;32.90;13.52;;;;;;;0.43;89.04;99672.09;5032521;28;20033;-70
2022/12/12 05:07:48;;;;;;;30.02;13.60;;;;;;;0.36;90.45;99664.22;5034164;28;20495;-71
2022/12/12 05:10:15;;;;;;;31.48;13.52;;;;;;;0.47;89.91;99675.59;5051856;28;20028;-71
2022/12/12 05:12:46;;;;;;;35.90;13.07;;;;;;;0.46;89.61;99686.94;5051834;28;20032;-71
2022/12/12 05:15:13;;;;;;;30.90;14.25;;;;;;;0.50;89.98;99675.59;5037999;28;20024;-71
2022/12/12 05:17:57;;;;;;;61.25;24.33;;;;;;;0.55;90.12;99672.13;5032967;28;20034;-70
2022/12/12 05:20:23;;;;;;;82.80;32.72;;;;;;;0.46;89.29;99676.47;5035370;28;20032;-71
2022/12/12 05:22:49;;;;;;;78.75;32.10;;;;;;;0.28;89.82;99650.28;5048091;28;20025;-71
2022/12/12 05:25:14;;;;;;;48.67;22.02;;;;;;;0.37;90.25;99676.44;5033503;28;20637;-71
2022/12/12 05:27:40;;;;;;;32.03;16.58;;;;;;;0.36;90.37;99674.69;5033305;28;20052;-70
2022/12/12 05:30:06;;;;;;;33.55;13.20;;;;;;;0.27;90.63;99669.44;5033956;28;20112;-71
2022/12/12 05:32:32;;;;;;;32.95;14.98;;;;;;;0.25;89.38;99666.81;5033510;28;20037;-69
2022/12/12 05:34:58;;;;;;;34.25;14.65;;;;;;;0.24;90.09;99665.06;5035409;28;20072;-71
2022/12/12 05:37:23;;;;;;;26.58;11.73;;;;;;;0.31;90.98;99679.03;5033205;28;20029;-70
2022/12/12 05:39:49;;;;;;;32.28;13.85;;;;;;;0.17;90.13;99672.88;5034731;28;20061;-71
2022/12/12 05:42:14;;;;;;;32.30;13.52;;;;;;;0.19;90.73;99676.38;5033736;28;20164;-75
2022/12/12 05:44:40;;;;;;;22.05;12.43;;;;;;;0.29;90.30;99689.50;5031839;28;20038;-71
2022/12/12 05:47:06;;;;;;;27.85;12.38;;;;;;;0.19;89.56;99681.59;5033367;28;20026;-70
2022/12/12 05:49:31;;;;;;;24.27;11.18;;;;;;;0.03;89.92;99681.56;5032974;28;20033;-71
2022/12/12 05:51:57;;;;;;;24.83;13.30;;;;;;;0.16;89.45;99692.06;5035138;28;20358;-71
2022/12/12 05:54:22;;;;;;;26.48;12.63;;;;;;;0.14;89.79;99673.75;5033155;28;20477;-72
2022/12/12 05:56:47;;;;;;;23.13;12.52;;;;;;;0.20;89.39;99696.44;5032900;28;20641;-71
2022/12/12 05:59:13;;;;;;;29.17;12.60;;;;;;;0.15;89.79;99695.56;5033973;28;20036;-71
2022/12/12 06:01:38;;;;;;;22.30;10.57;;;;;;;0.18;89.83;99706.03;5042394;28;20025;-71
2022/12/12 06:04:04;;;;;;;27.23;12.15;;;;;;;0.13;89.52;99699.91;5032435;28;20615;-71
2022/12/12 06:06:29;;;;;;;26.10;13.23;;;;;;;0.06;89.76;99690.28;5030540;28;20021;-71
2022/12/12 06:08:55;;;;;;;26.80;13.07;;;;;;;0.14;89.66;99707.75;5032802;28;20025;-71
2022/12/12 06:11:20;;;;;;;28.75;12.88;;;;;;;0.17;90.13;99702.53;5045147;28;20025;-71
2022/12/12 06:13:46;;;;;;;27.85;13.35;;;;;;;0.22;90.96;99705.16;5045557;28;20083;-71
2022/12/12 06:16:16;;;;;;;21.00;11.85;;;;;;;0.17;90.57;99705.16;5032656;28;20042;-71
2022/12/12 06:18:43;;;;;;;26.30;13.25;;;;;;;0.06;89.67;99701.63;5030521;28;20449;-71
2022/12/12 06:21:11;;;;;;;28.42;13.88;;;;;;;0.02;90.52;99688.53;5050154;28;20029;-71
2022/12/12 06:23:40;;;;;;;29.02;12.15;;;;;;;0.21;90.73;99712.16;5052258;28;20146;-70
2022/12/12 06:26:07;;;;;;;26.67;12.73;;;;;;;0.13;90.31;99695.56;5046482;28;20566;-71
2022/12/12 06:28:32;;;;;;;29.70;15.30;;;;;;;0.21;90.86;99713.88;5033379;28;20033;-71
2022/12/12 06:30:58;;;;;;;34.58;15.38;;;;;;;0.14;90.48;99704.25;5051445;28;20040;-70
2022/12/12 06:33:26;;;;;;;29.88;13.98;;;;;;;0.16;90.05;99718.22;5051170;28;20557;-71
2022/12/12 06:36:07;;;;;;;30.58;12.52;;;;;;;0.10;90.93;99705.13;5046579;28;20040;-70
2022/12/12 06:38:34;;;;;;;36.50;14.02;;;;;;;0.02;90.13;99715.53;5051493;28;20021;-71
2022/12/12 06:41:03;;;;;;;28.45;12.70;;;;;;;-0.03;90.12;99715.53;5051813;28;20032;-70
2022/12/12 06:43:28;;;;;;;30.17;13.10;;;;;;;-0.12;90.05;99723.34;5052233;28;20118;-70
2022/12/12 06:46:00;;;;;;;28.65;12.45;;;;;;;-0.21;90.05;99715.44;5033807;28;20390;-70
2022/12/12 06:48:25;;;;;;;28.25;12.95;;;;;;;-0.17;90.69;99725.06;5012181;28;20421;-71
2022/12/12 06:50:51;;;;;;;27.52;13.32;;;;;;;-0.21;90.95;99731.13;5015804;28;20030;-71
2022/12/12 06:53:16;;;;;;;31.48;13.25;;;;;;;-0.40;90.80;99708.38;5029882;28;20187;-71
2022/12/12 06:55:42;;;;;;;29.30;13.30;;;;;;;-0.26;90.89;99730.22;5033414;28;20025;-71
2022/12/12 06:58:09;;;;;;;27.83;14.85;;;;;;;-0.25;91.54;99739.78;5013031;28;20382;-70
2022/12/12 07:00:34;;;;;;;29.48;14.13;;;;;;;-0.25;91.32;99731.94;5031807;28;20025;-71
2022/12/12 07:02:59;;;;;;;33.58;16.67;;;;;;;-0.25;91.85;99737.16;5031711;28;20048;-71
2022/12/12 07:05:25;;;;;;;29.77;13.50;;;;;;;-0.34;91.75;99718.84;5036432;28;20501;-71
2022/12/12 07:07:50;;;;;;;30.65;14.35;;;;;;;-0.26;92.10;99745.88;5051413;28;20033;-70
2022/12/12 07:10:17;;;;;;;23.23;12.43;;;;;;;-0.35;91.19;99735.41;5051205;28;20123;-70
2022/12/12 07:12:42;;;;;;;28.88;15.13;;;;;;;-0.23;91.48;99743.28;5050258;28;20017;-71
2022/12/12 07:15:08;;;;;;;32.28;13.27;;;;;;;-0.23;91.22;99745.06;5037827;28;20631;-70
2022/12/12 07:17:34;;;;;;;30.27;13.75;;;;;;;-0.33;91.98;99735.41;5028669;28;20025;-70
2022/12/12 07:19:59;;;;;;;28.05;14.43;;;;;;;-0.38;91.61;99719.69;5031145;28;20060;-71
2022/12/12 07:22:24;;;;;;;30.70;15.13;;;;;;;-0.35;91.75;99732.78;5030751;28;20129;-71
2022/12/12 07:24:51;;;;;;;27.83;14.60;;;;;;;-0.44;91.58;99735.31;5029455;28;20025;-70
2022/12/12 07:27:17;;;;;;;28.60;13.73;;;;;;;-0.54;92.74;99723.06;5044890;28;20032;-70
2022/12/12 07:29:43;;;;;;;25.90;13.65;;;;;;;-0.43;92.34;99731.84;5051012;28;20102;-70
2022/12/12 07:32:09;;;;;;;39.63;16.15;;;;;;;-0.38;92.32;99740.56;5049439;28;20392;-70
2022/12/12 07:34:34;;;;;;;29.92;14.18;;;;;;;-0.27;92.66;99741.53;5049241;28;20037;-70
2022/12/12 07:36:59;;;;;;;30.95;15.13;;;;;;;-0.20;92.50;99748.53;5048734;28;20518;-70
2022/12/12 07:39:27;;;;;;;36.15;15.43;;;;;;;-0.25;92.66;99726.72;5050872;28;20039;-71
2022/12/12 07:41:53;;;;;;;29.13;13.43;;;;;;;-0.08;92.75;99759.06;5035714;28;20398;-71
2022/12/12 07:44:18;;;;;;;31.58;15.32;;;;;;;-0.15;91.59;99740.75;5011245;28;20025;-70
2022/12/12 07:46:43;;;;;;;27.67;13.77;;;;;;;-0.08;91.72;99748.59;5017441;28;20025;-70
2022/12/12 07:49:09;;;;;;;32.03;13.68;;;;;;;-0.08;92.29;99746.00;5040687;28;20030;-71
2022/12/12 07:51:35;;;;;;;29.77;15.05;;;;;;;-0.09;92.32;99749.47;5029656;28;20029;-70
2022/12/12 07:54:00;;;;;;;28.92;12.80;;;;;;;-0.13;92.13;99742.47;5031168;28;20025;-71
2022/12/12 07:56:26;;;;;;;30.17;13.73;;;;;;;-0.08;92.28;99751.22;5035935;28;20720;-71
2022/12/12 07:58:52;;;;;;;27.83;13.32;;;;;;;-0.04;91.59;99763.44;5051064;28;20025;-71
2022/12/12 08:01:23;;;;;;;30.98;15.30;;;;;;;-0.04;92.00;99773.91;5048635;28;20116;-71
2022/12/12 08:03:50;;;;;;;28.98;14.30;;;;;;;-0.10;91.84;99742.50;5029237;28;20029;-70
2022/12/12 08:06:17;;;;;;;26.95;14.27;;;;;;;0.02;91.92;99761.75;5037046;28;20133;-70
2022/12/12 08:08:44;;;;;;;31.98;16.67;;;;;;;-0.03;92.01;99752.13;5034823;28;20049;-70
2022/12/12 08:11:11;;;;;;;36.72;16.42;;;;;;;0.11;91.84;99777.44;5036685;28;20079;-70
2022/12/12 08:13:38;;;;;;;29.02;14.95;;;;;;;0.10;92.31;99775.72;5033723;28;20060;-71
2022/12/12 08:16:06;;;;;;;38.53;17.95;;;;;;;0.19;92.30;99780.97;5048713;28;20049;-68
2022/12/12 08:18:32;;;;;;;34.10;15.80;;;;;;;0.31;91.86;99778.44;5033525;28;20029;-70
2022/12/12 08:20:58;;;;;;;25.58;13.35;;;;;;;0.28;91.89;99767.97;5035785;28;20079;-70
2022/12/12 08:23:23;;;;;;;26.75;15.10;;;;;;;0.29;91.04;99782.78;5033602;28;20026;-70
2022/12/12 08:25:49;;;;;;;28.15;13.70;;;;;;;0.30;90.84;99790.63;5035212;28;20029;-69
2022/12/12 08:28:14;;;;;;;30.73;14.63;;;;;;;0.32;90.49;99788.00;5034272;28;20041;-69
2022/12/12 08:30:40;;;;;;;34.67;13.70;;;;;;;0.35;89.91;99791.50;5034407;28;20109;-69
2022/12/12 08:33:05;;;;;;;31.65;18.10;;;;;;;0.28;89.20;99786.25;5033608;28;20098;-70
2022/12/12 08:35:31;;;;;;;28.50;13.93;;;;;;;0.19;89.01;99765.28;5039720;28;20128;-70
2022/12/12 08:37:58;;;;;;;26.98;12.25;;;;;;;0.40;89.44;99792.41;5054152;28;20067;-70
2022/12/12 08:40:23;;;;;;;;;;;;;;;0.55;89.33;99796.81;5051944;28;20024;-69
2022/12/12 08:42:49;;;;;;;;;;;;;;;0.55;89.43;99797.72;5035809;28;20314;-77
2022/12/12 08:45:14;;;;;;;;;;;;;;;0.59;87.74;99796.88;5034762;28;19928;-77
2022/12/12 08:47:39;;;;;;;;;;;;;;;0.76;87.88;99802.13;5034963;28;20000;-77
2022/12/12 08:50:05;;;;;;;;;;;;;;;0.97;87.30;99796.97;5035772;28;19944;-77
2022/12/12 08:52:30;;;;;;;;;;;;;;;1.28;87.23;99804.00;5039626;28;19971;-77
2022/12/12 08:54:56;;;;;;;;;;;;;;;1.33;84.93;99807.50;5034602;28;19924;-76
2022/12/12 08:57:21;;;;;;;;;;;;;;;1.22;83.42;99803.97;5034982;28;19943;-76
2022/12/12 08:59:47;;;;;;;;;;;;;;;1.11;83.02;99808.31;5034772;28;19928;-76
2022/12/12 09:02:12;;;;;;;;;;;;;;;1.06;82.89;99818.78;5032151;28;19999;-75
2022/12/12 09:04:38;;;;;;;;;;;;;;;0.94;82.23;99815.28;5029976;28;20046;-78
2022/12/12 09:07:03;;;;;;;;;;;;;;;0.96;83.22;99816.16;5034474;28;20369;-78
2022/12/12 09:09:29;;;;;;;;;;;;;;;0.81;83.44;99821.34;5034336;28;19928;-78
2022/12/12 09:11:54;;;;;;;;;;;;;;;0.79;83.62;99829.19;5034101;28;19954;-76
2022/12/12 09:14:19;;;;;;;;;;;;;;;0.75;83.51;99826.56;5034168;28;19927;-77
2022/12/12 09:16:44;;;;;;;;;;;;;;;0.62;85.02;99822.16;5035797;28;20314;-74
2022/12/12 09:19:10;;;;;;;;;;;;;;;0.59;84.64;99828.25;5032912;28;19954;-73
2022/12/12 09:21:35;;;;;;;;;;;;;;;0.64;85.36;99836.13;5034390;28;20259;-78
2022/12/12 09:24:01;;;;;;;;;;;;;;;0.74;85.63;99824.81;5034039;28;19931;-70
2022/12/12 09:26:26;;;;;;;;;;;;;;;0.79;85.65;99829.19;5033696;28;19928;-70
2022/12/12 09:28:52;;;;;;;;;;;;;;;0.81;84.13;99826.56;5033978;28;19952;-70
2022/12/12 09:31:17;;;;;;;;;;;;;;;0.77;85.11;99830.06;5035620;28;19956;-70
2022/12/12 09:33:42;;;;;;;;;;;;;;;0.72;84.27;99831.78;5033844;28;19941;-69
2022/12/12 09:36:08;;;;;;;;;;;;;;;0.67;84.44;99833.50;5033236;28;20303;-70
2022/12/12 09:38:34;;;;;;;;;;;;;;;0.78;84.61;99837.03;5036417;28;19958;-70
2022/12/12 09:41:01;;;;;;;;;;;;;;;0.80;85.76;99841.41;5033609;28;19935;-70
2022/12/12 09:43:35;;;;;;;;;;;;;;;0.72;85.01;99843.16;5035858;28;19938;-70
2022/12/12 09:46:01;;;;;;;;;;;;;;;0.79;85.45;99847.50;5033542;28;19933;-70
2022/12/12 09:48:26;;;;;;;;;;;;;;;0.88;85.23;99844.06;5034293;28;20054;-72
2022/12/12 09:50:52;;;;;;;;;;;;;;;1.17;85.62;99831.94;5035241;28;20423;-74
2022/12/12 09:53:18;;;;;;;;;;;;;;;1.35;86.21;99831.94;5033532;28;19939;-74
2022/12/12 09:55:44;;;;;;;;;;;;;;;1.44;85.19;99824.09;5033201;28;19932;-74
2022/12/12 09:58:27;;;;;;;;;;;;;;;1.45;85.75;99823.19;5033291;28;19931;-74
2022/12/12 10:01:16;;;;;;;;;;;;;;;1.50;84.33;99831.09;5034954;28;19932;-73
2022/12/12 10:03:47;;;;;;;;;;;;;;;1.48;84.16;99827.59;5013840;28;19945;-73
2022/12/12 10:06:14;;;;;;;;;;;;;;;1.46;83.53;99819.72;5032688;28;19940;-73
2022/12/12 10:08:56;;;;;;;;;;;;;;;1.38;82.10;99821.47;5035532;28;20295;-73
2022/12/12 10:11:53;;;;;;;;;;;;;;;1.48;82.20;99822.34;5033221;28;19947;-74
2022/12/12 10:14:35;;;;;;;;;;;;;;;1.77;82.63;99818.84;5035270;28;19959;-76
2022/12/12 10:17:02;;;;;;;;;;;;;;;2.01;78.76;99813.56;5033498;28;19949;-75
2022/12/12 10:19:29;;;;;;;;;;;;;;;2.10;76.56;99805.69;5039574;28;19928;-79
2022/12/12 10:21:59;;;;;;;;;;;;;;;2.28;76.73;99816.13;5053268;28;19920;-78
2022/12/12 10:24:43;;;;;;;;;;;;;;;2.53;77.01;99816.91;5049369;28;19981;-77
2022/12/12 10:27:13;;;;;;;;;;;;;;;2.56;75.43;99819.53;5011985;28;20350;-75
2022/12/12 10:29:40;;;;;;;;;;;;;;;2.50;74.17;99812.53;5023734;28;19917;-74
2022/12/12 10:32:08;;;;;;;;;;;;;;;2.17;73.72;99823.16;5021331;28;19948;-73
2022/12/12 10:34:49;;;;;;;;;;;;;;;2.12;74.01;99809.19;5013317;28;19927;-74
2022/12/12 10:37:34;;;;;;;;;;;;;;;2.03;74.62;99814.44;5028012;28;20342;-73
2022/12/12 10:40:18;;;;;;;;;;;;;;;2.06;75.61;99822.28;5052681;28;19930;-73
2022/12/12 10:42:43;;;;;;;;;;;;;;;2.29;76.15;99817.84;5050061;28;20374;-72
2022/12/12 10:45:21;;;;;;;;;;;;;;;2.45;75.07;99816.97;5031281;28;19931;-72
2022/12/12 10:47:47;;;;;;;;;;;;;;;2.44;74.19;99814.31;5033184;28;19917;-75
2022/12/12 10:50:15;;;;;;;;;;;;;;;2.63;74.71;99803.75;5035213;28;20323;-73
2022/12/12 10:52:40;;;;;;;;;;;;;;;2.90;73.85;99799.25;5032915;28;20477;-73
2022/12/12 10:55:31;;;;;;;;;;;;;;;2.84;71.34;99794.00;5030263;28;19914;-72
2022/12/12 10:58:02;;;;;;;;;;;;;;;2.75;72.13;99799.31;4997027;28;19932;-72
2022/12/12 11:00:47;;;;;;;;;;;;;;;3.00;73.57;99798.31;5016055;28;19958;-72
2022/12/12 11:03:31;;;;;;;;;;;;;;;3.10;71.84;99794.75;5015392;28;19934;-71
2022/12/12 11:06:03;;;;;;;;;;;;;;;3.27;71.43;99798.13;5032166;28;19962;-71
2022/12/12 11:08:33;;;;;;;;;;;;;;;3.40;70.83;99789.25;5033310;28;19943;-70
2022/12/12 11:11:18;;;;;;;;;;;;;;;3.54;71.17;99787.41;5031241;28;20005;-70
2022/12/12 11:13:52;;;;;;;;;;;;;;;3.79;68.75;99784.53;5031077;28;19934;-70
2022/12/12 11:16:20;;;;;;;;;;;;;;;3.76;66.48;99784.56;5035022;28;19943;-72
2022/12/12 11:18:59;;;;;;;;;;;;;;;3.55;67.01;99784.75;5041340;28;20024;-72
2022/12/12 11:21:26;;;;;;;;;;;;;;;3.62;68.33;99789.09;5032004;28;19942;-70
2022/12/12 11:23:53;;;;;;;;;;;;;;;3.58;67.53;99781.22;5036035;28;19967;-70
2022/12/12 11:26:19;;;;;;;;;;;;;;;3.39;66.62;99770.00;5031773;28;19971;-70
2022/12/12 11:28:50;;;;;;;;;;;;;;;3.90;68.66;99773.94;5033441;28;19999;-70
2022/12/12 11:31:16;;;;;;;;;;;;;;;4.72;61.57;99774.72;5031698;28;19951;-70
2022/12/12 11:33:52;;;;;;;;;;;;;;;5.42;61.85;99774.56;5033799;28;19944;-70
2022/12/12 11:36:20;;;;;;;;;;;;;;;5.85;59.52;99778.25;5031344;28;20378;-70
2022/12/12 11:38:50;;;;;;;;;;;;;;;5.58;58.31;99778.72;5046975;28;19953;-70
2022/12/12 11:41:16;;;;;;;;;;;;;;;5.51;58.77;99776.19;5031546;28;19966;-70
2022/12/12 11:43:44;;;;;;;;;;;;;;;5.55;58.48;99768.22;5033895;28;20341;-71
2022/12/12 11:46:09;;;;;;;;;;;;;;;5.67;56.89;99772.41;5031469;28;20035;-71
2022/12/12 11:48:37;;;;;;;;;;;;;;;5.84;56.79;99765.97;5032245;28;21876;-71
2022/12/12 11:51:02;;;;;;;;;;;;;;;6.28;55.77;99767.78;5049364;28;19955;-71
2022/12/12 11:53:28;;;;;;;;;;;;;;;7.08;56.14;99751.09;5051562;28;20720;-71
2022/12/12 11:55:56;;;;;;;;;;;;;;;7.84;51.45;99753.59;5047446;28;20410;-71
2022/12/12 11:58:24;;;;;;;;;;;;;;;8.12;52.70;99752.88;5034365;28;19940;-71
2022/12/12 12:00:52;;;;;;;;;;;;;;;8.32;50.75;99746.16;5051203;28;19931;-71
2022/12/12 12:03:36;;;;;;;;;;;;;;;8.02;48.97;99760.22;5046180;28;19917;-72
2022/12/12 12:06:16;;;;;;;;;;;;;;;7.36;51.28;99754.84;5050448;28;19928;-72
2022/12/12 12:08:44;;;;;;;;;;;;;;;6.35;52.99;99757.06;5031113;28;19914;-72
2022/12/12 12:11:28;;;;;;;;;;;;;;;5.88;53.75;99766.78;5033172;28;20338;-73
2022/12/12 12:13:57;;;;;;;;;;;;;;;5.00;55.80;99757.63;5031662;28;19982;-69
2022/12/12 12:16:43;;;;;;;;;;;;;;;4.52;58.59;99750.41;5030736;28;19934;-70